Jacksonville, Missouri
Current Conditions -  °F | °C
As of 5:23 PM on Wednesday 26 Nov 2014 (Local Time) from KIRK Reporting Station
Light Snow Light Snow  
Wind Chill: -4°   Ceiling: 500
Heat Index:   Visibility: 3mi
Dew Point: -1°   Wind: 7mph
Humidity: 96%   Direction: 350°N
Pressure: 30.06"   Gusts: NA
Location:  39.59°N, 92.47°W
Report Text: KIRK 262323Z AUTO 35006KT 3SM -SN BR OVC005 00/M01 A3006 RMK AO2 P0000 T00001006
Loading
Personal Weather Stations






























Interactive Weather Map New forecast layout! Learn more

10-Day Weather Forecast

Advertisements
Track Severe Weather on mobile